Аэропорт
Тайпин (ZYHB)

 ZYHB / HRB

China
CN-23
Харбин
 45.62340, 126.25000  / 457 ft

 ZYHB 201600Z 09001MPS 2800 BR NSC M07/M09 Q1028 NOSIG
 TAF ZYHB 200907Z 2012/2112 15004MPS 3000 BR BKN020 TXM01/2106Z TNM10/2112Z TEMPO 2012/2018 1400 BECMG 2018/2020 1400 -SN BR TEMPO 2102/2108 0700 SN FZFG

2020 © VATRUS division (Privacy Policy)